This is the latest recevied weather packets stored in our database for station/object KE6LRO. If no packets are shown the sender has not sent any weather packets the latest 10 day(s).
| Time | Temp. | Humidity | Pressure | Rain* | Wind** | Luminosity | Snow |
|---|---|---|---|---|---|---|---|
| 1778099612 | 22.22° C | 31% | 1016.8 hPa | 0 mm | - | 240 W/m² | - |
| 1778099309 | 22.22° C | 34% | 1016.6 hPa | 0 mm | - | 196 W/m² | - |
| 1778099006 | 22.22° C | 31% | 1016.7 hPa | 0 mm | - | 795 W/m² | - |
| 1778098702 | 23.89° C | 33% | 1017.1 hPa | 0 mm | - | 783 W/m² | - |
| 1778098400 | 22.78° C | 34% | 1017.1 hPa | 0 mm | - | 770 W/m² | - |
| 1778098097 | 22.78° C | 34% | 1016.7 hPa | 0 mm | - | 421 W/m² | - |
| 1778097793 | 23.33° C | 30% | 1016.8 hPa | 0 mm | - | 755 W/m² | - |
| 1778097489 | 22.78° C | 33% | 1017.1 hPa | 0 mm | - | 763 W/m² | - |
| 1778097186 | 22.78° C | 34% | 1017.1 hPa | 0 mm | - | 754 W/m² | - |
| 1778096883 | 22.78° C | 32% | 1017.1 hPa | 0 mm | - | 755 W/m² | - |
| 1778096579 | 21.67° C | 35% | 1017.1 hPa | 0 mm | - | 691 W/m² | - |
| 1778096277 | 21.11° C | 36% | 1017.3 hPa | 0 mm | - | 756 W/m² | - |
| 1778095974 | 20.56° C | 36% | 1017.5 hPa | 0 mm | - | 755 W/m² | - |
| 1778095670 | 20° C | 36% | 1017.7 hPa | 0 mm | - | 770 W/m² | - |
| 1778095367 | 20° C | 36% | 1017.5 hPa | 0 mm | - | 767 W/m² | - |
| 1778095064 | 18.89° C | 38% | 1017.9 hPa | 0 mm | - | 767 W/m² | - |
| 1778094760 | 18.89° C | 35% | 1017.8 hPa | 0 mm | - | 767 W/m² | - |
| 1778094458 | 18.89° C | 38% | 1018.1 hPa | 0 mm | - | 770 W/m² | - |
| 1778094154 | 18.89° C | 37% | 1018.1 hPa | 0 mm | - | 783 W/m² | - |
| 1778093851 | 18.33° C | 37% | 1018.2 hPa | 0 mm | - | 755 W/m² | - |
| 1778093547 | 17.22° C | 39% | 1018.2 hPa | 0 mm | - | 695 W/m² | - |
| 1778093245 | 17.78° C | 38% | 1018.6 hPa | 0 mm | - | 760 W/m² | - |
| 1778092942 | 17.78° C | 39% | 1018.5 hPa | 0 mm | - | 759 W/m² | - |
| 1778092639 | 16.67° C | 39% | 1018.7 hPa | 0 mm | - | 782 W/m² | - |
| 1778092335 | 16.67° C | 40% | 1018.6 hPa | 0 mm | - | 804 W/m² | - |
* Rain latest hour (hover to see other rain measurements)
** Current wind speed in m/s (hover to see current wind gust speed)